createdAt,value
2023-02-28T00:01:40.705Z,3.35
2023-02-28T00:04:10.314Z,3.38
2023-02-28T00:06:38.681Z,3.85
2023-02-28T00:09:08.363Z,3.67
2023-02-28T00:11:38.880Z,3.60
2023-02-28T00:14:07.315Z,3.55
2023-02-28T00:16:35.836Z,3.08
2023-02-28T00:19:04.115Z,3.58
2023-02-28T00:21:32.423Z,3.58
2023-02-28T00:24:00.739Z,4.05
2023-02-28T00:26:30.400Z,3.40
2023-02-28T00:28:58.621Z,3.45
2023-02-28T00:31:27.190Z,3.28
2023-02-28T00:33:55.532Z,3.40
2023-02-28T00:36:23.724Z,3.50
2023-02-28T00:38:54.314Z,3.55
2023-02-28T00:41:22.627Z,3.25
2023-02-28T00:43:52.260Z,3.35
2023-02-28T00:46:20.591Z,3.25
2023-02-28T00:48:48.845Z,3.60
2023-02-28T00:51:19.725Z,3.58
2023-02-28T00:53:49.802Z,3.28
2023-02-28T00:56:18.103Z,3.28
2023-02-28T00:58:46.291Z,3.50
2023-02-28T01:01:15.924Z,3.60
2023-02-28T01:03:44.164Z,3.22
2023-02-28T01:06:12.394Z,3.40
2023-02-28T01:08:40.591Z,3.72
2023-02-28T01:11:13.874Z,3.65
2023-02-28T01:13:42.261Z,3.25
2023-02-28T01:16:10.771Z,3.40
2023-02-28T01:18:42.178Z,4.00
2023-02-28T01:21:12.265Z,3.03
2023-02-28T01:23:41.263Z,3.15
2023-02-28T01:26:10.104Z,3.75
2023-02-28T01:28:38.731Z,3.20
2023-02-28T01:31:07.331Z,4.00
2023-02-28T01:33:36.712Z,3.65
2023-02-28T01:36:09.691Z,4.05
2023-02-28T01:38:41.661Z,3.90
2023-02-28T01:41:12.500Z,3.33
2023-02-28T01:44:04.782Z,3.42
2023-02-28T01:46:34.092Z,4.10
2023-02-28T01:49:07.186Z,3.30
2023-02-28T01:51:46.625Z,3.55
2023-02-28T01:54:19.917Z,4.10
2023-02-28T01:56:53.679Z,4.30
2023-02-28T01:59:26.524Z,3.60
2023-02-28T02:01:55.882Z,4.32
2023-02-28T02:04:28.358Z,4.00
2023-02-28T02:06:58.101Z,4.38
2023-02-28T02:09:26.337Z,4.63
2023-02-28T02:11:57.226Z,4.03
2023-02-28T02:14:40.586Z,4.20
2023-02-28T02:20:27.183Z,3.88
2023-02-28T02:23:11.756Z,4.40
2023-02-28T02:25:43.876Z,3.55
2023-02-28T02:28:44.269Z,4.10
2023-02-28T02:31:49.920Z,3.97
2023-02-28T02:34:36.390Z,4.43
2023-02-28T02:37:15.336Z,4.22
2023-02-28T02:39:51.137Z,4.20
2023-02-28T02:42:27.821Z,4.45
2023-02-28T02:45:01.998Z,4.28
2023-02-28T02:47:32.804Z,3.92
2023-02-28T02:50:06.800Z,4.03
2023-02-28T02:52:40.606Z,4.43
2023-02-28T02:55:12.138Z,4.47
2023-02-28T02:57:47.568Z,4.22
2023-02-28T03:00:18.105Z,4.28
2023-02-28T03:02:48.686Z,4.72
2023-02-28T03:05:22.401Z,4.22
2023-02-28T03:07:50.734Z,4.50
2023-02-28T03:10:39.797Z,4.45
2023-02-28T03:13:54.757Z,4.25
2023-02-28T03:16:37.377Z,4.40
2023-02-28T03:19:24.450Z,4.40
2023-02-28T03:22:07.285Z,5.10
2023-02-28T03:24:43.315Z,4.45
2023-02-28T03:27:16.649Z,4.93
2023-02-28T03:29:50.029Z,4.88
2023-02-28T03:32:26.506Z,4.57
2023-02-28T03:35:04.741Z,4.63
2023-02-28T03:37:37.586Z,5.13
2023-02-28T03:40:10.146Z,4.32
2023-02-28T03:42:40.222Z,5.03
2023-02-28T03:45:14.255Z,4.50
2023-02-28T03:47:47.337Z,4.03
2023-02-28T03:52:52.322Z,4.65
2023-02-28T03:55:21.123Z,4.75
2023-02-28T03:58:00.354Z,4.45
2023-02-28T04:00:33.860Z,4.95
2023-02-28T04:03:02.196Z,4.72
2023-02-28T04:05:31.691Z,4.47
2023-02-28T04:08:08.420Z,5.00
2023-02-28T04:10:36.812Z,4.22
2023-02-28T04:13:05.083Z,4.72
2023-02-28T04:15:33.337Z,4.78
2023-02-28T04:18:01.626Z,4.35
2023-02-28T04:20:29.887Z,4.70
2023-02-28T04:22:58.105Z,4.30
2023-02-28T04:25:27.687Z,4.35
2023-02-28T04:27:55.922Z,4.75
2023-02-28T04:30:24.158Z,4.40
2023-02-28T04:32:52.366Z,4.47
2023-02-28T04:35:20.608Z,4.65
2023-02-28T04:37:48.824Z,4.85
2023-02-28T04:40:17.482Z,4.78
2023-02-28T04:42:47.045Z,5.00
2023-02-28T04:45:15.309Z,4.47
2023-02-28T04:47:43.592Z,4.50
2023-02-28T04:50:12.535Z,4.43
2023-02-28T04:52:40.750Z,4.95
2023-02-28T04:55:09.918Z,4.80
2023-02-28T04:57:38.206Z,4.57
2023-02-28T05:00:12.500Z,4.38
2023-02-28T05:02:40.897Z,4.40
2023-02-28T05:05:09.493Z,4.18
2023-02-28T05:07:37.896Z,4.20
2023-02-28T05:10:06.704Z,4.22
2023-02-28T05:12:34.946Z,5.72
2023-02-28T05:15:03.449Z,4.63
2023-02-28T05:17:33.345Z,4.32
2023-02-28T05:20:14.782Z,4.10
2023-02-28T05:22:43.872Z,4.75
2023-02-28T05:25:14.518Z,3.72
2023-02-28T05:27:42.729Z,4.30
2023-02-28T05:30:12.478Z,3.78
2023-02-28T05:32:43.841Z,3.85
2023-02-28T05:35:13.283Z,4.68
2023-02-28T05:37:41.792Z,4.40
2023-02-28T05:40:12.243Z,3.85
2023-02-28T05:42:40.835Z,4.35
2023-02-28T05:45:10.584Z,4.18
2023-02-28T05:47:38.884Z,3.90
2023-02-28T05:50:11.510Z,3.17
2023-02-28T05:52:39.919Z,4.00
2023-02-28T05:55:09.206Z,3.58
2023-02-28T05:57:37.435Z,3.83
2023-02-28T06:00:06.589Z,3.72
2023-02-28T06:02:35.053Z,3.88
2023-02-28T06:05:03.335Z,3.28
2023-02-28T06:07:32.984Z,4.80
2023-02-28T06:10:01.213Z,3.92
2023-02-28T06:12:29.418Z,4.25
2023-02-28T06:14:57.702Z,4.35
2023-02-28T06:17:25.925Z,4.20
2023-02-28T06:19:54.354Z,3.50
2023-02-28T06:22:22.621Z,3.88
2023-02-28T06:24:53.737Z,3.97
2023-02-28T06:27:22.159Z,4.10
2023-02-28T06:29:50.349Z,3.70
2023-02-28T06:32:18.693Z,3.97
2023-02-28T06:34:47.525Z,3.83
2023-02-28T06:37:15.971Z,3.95
2023-02-28T06:39:44.479Z,3.85
2023-02-28T06:42:14.278Z,3.47
2023-02-28T06:44:43.989Z,3.65
2023-02-28T06:47:12.423Z,3.75
2023-02-28T06:49:41.827Z,3.88
2023-02-28T06:52:11.017Z,4.00
2023-02-28T06:54:39.593Z,3.78
2023-02-28T06:57:10.520Z,4.15
2023-02-28T06:59:40.330Z,4.20
2023-02-28T07:02:10.263Z,4.03
2023-02-28T07:04:40.603Z,3.70
2023-02-28T07:07:08.981Z,4.18
2023-02-28T07:09:37.498Z,3.95
2023-02-28T07:12:06.172Z,4.38
2023-02-28T07:14:34.387Z,4.10
2023-02-28T07:17:08.715Z,4.25
2023-02-28T07:19:37.197Z,3.92
2023-02-28T07:22:05.409Z,4.28
2023-02-28T07:24:33.691Z,3.85
2023-02-28T07:27:02.511Z,3.90
2023-02-28T07:29:30.756Z,3.60
2023-02-28T07:31:59.099Z,3.65
2023-02-28T07:34:28.786Z,3.65
2023-02-28T07:36:57.070Z,3.85
2023-02-28T07:39:25.297Z,3.90
2023-02-28T07:41:53.502Z,3.60
2023-02-28T07:44:22.130Z,3.60
2023-02-28T07:46:50.490Z,4.05
2023-02-28T07:49:18.813Z,3.28
2023-02-28T07:51:48.436Z,2.85
2023-02-28T07:54:16.708Z,2.80
2023-02-28T07:56:44.931Z,3.30
2023-02-28T07:59:13.247Z,3.13
2023-02-28T08:01:41.461Z,3.05
2023-02-28T08:04:09.721Z,3.05
2023-02-28T08:06:37.912Z,3.10
2023-02-28T08:09:07.524Z,2.67
2023-02-28T08:11:35.825Z,2.60
2023-02-28T08:14:04.063Z,2.85
2023-02-28T08:16:32.406Z,2.88
2023-02-28T08:19:00.640Z,2.40
2023-02-28T08:21:29.159Z,2.30
2023-02-28T08:23:57.838Z,2.30
2023-02-28T08:26:27.647Z,2.75
2023-02-28T08:28:57.284Z,2.60
2023-02-28T08:31:26.178Z,2.90
2023-02-28T08:33:56.928Z,2.10
2023-02-28T08:36:26.524Z,2.10
2023-02-28T08:38:54.756Z,2.58
2023-02-28T08:41:22.968Z,2.53
2023-02-28T08:43:52.573Z,2.22
2023-02-28T08:46:20.803Z,2.30
2023-02-28T08:48:49.383Z,2.60
2023-02-28T08:51:23.067Z,2.40
2023-02-28T08:53:51.424Z,1.95
2023-02-28T08:56:19.776Z,2.10
2023-02-28T08:58:49.377Z,2.22
2023-02-28T09:01:20.592Z,2.35
2023-02-28T09:03:50.223Z,2.35
2023-02-28T09:06:20.849Z,2.00
2023-02-28T09:08:49.306Z,2.40
2023-02-28T09:11:19.656Z,2.63
2023-02-28T09:13:48.649Z,1.85
2023-02-28T09:16:19.796Z,2.25
2023-02-28T09:18:48.064Z,2.08
2023-02-28T09:21:18.955Z,2.40
2023-02-28T09:23:48.753Z,2.38
2023-02-28T09:26:18.841Z,2.08
2023-02-28T09:28:47.363Z,1.98
2023-02-28T09:31:16.579Z,2.20
2023-02-28T09:33:46.285Z,2.15
2023-02-28T09:36:14.530Z,2.30
2023-02-28T09:38:43.696Z,2.50
2023-02-28T09:41:17.037Z,2.50
2023-02-28T09:46:33.670Z,2.08
2023-02-28T09:49:07.060Z,2.40
2023-02-28T09:51:49.912Z,2.25
2023-02-28T09:54:20.879Z,2.70
2023-02-28T09:56:54.330Z,2.40
2023-02-28T09:59:36.553Z,2.40
2023-02-28T10:02:15.784Z,3.30
2023-02-28T10:04:53.613Z,2.65
2023-02-28T10:07:37.732Z,2.72
2023-02-28T10:10:18.340Z,2.80
2023-02-28T10:12:49.137Z,3.35
2023-02-28T10:15:19.205Z,3.03
2023-02-28T10:17:55.579Z,2.90
2023-02-28T10:20:33.811Z,2.97
2023-02-28T10:23:08.569Z,3.08
2023-02-28T10:25:40.121Z,2.55
2023-02-28T10:28:13.508Z,3.13
2023-02-28T10:33:21.609Z,2.78
2023-02-28T10:35:51.984Z,3.03
2023-02-28T10:38:23.798Z,2.97
2023-02-28T10:40:52.618Z,3.13
2023-02-28T10:43:23.852Z,2.80
2023-02-28T10:46:02.327Z,2.95
2023-02-28T10:48:38.578Z,2.75
2023-02-28T10:51:12.502Z,3.30
2023-02-28T10:54:00.651Z,3.38
2023-02-28T10:56:32.114Z,3.95
2023-02-28T10:59:06.317Z,3.15
2023-02-28T11:01:40.897Z,3.40
2023-02-28T11:04:40.095Z,3.80
2023-02-28T11:07:23.192Z,3.70
2023-02-28T11:09:54.546Z,3.50
2023-02-28T11:12:25.500Z,3.60
2023-02-28T11:14:56.913Z,3.20
2023-02-28T11:17:27.911Z,3.50
2023-02-28T11:19:59.493Z,4.00
2023-02-28T11:22:32.449Z,3.20
2023-02-28T11:25:04.302Z,4.20
2023-02-28T11:28:02.068Z,3.75
2023-02-28T11:30:41.621Z,3.47
2023-02-28T11:33:25.504Z,3.40
2023-02-28T11:35:54.718Z,3.70
2023-02-28T11:38:24.453Z,4.20
2023-02-28T11:41:23.320Z,3.50
2023-02-28T11:44:07.930Z,3.35
2023-02-28T11:46:42.498Z,3.22
2023-02-28T11:49:24.744Z,3.58
2023-02-28T11:51:59.204Z,3.67
2023-02-28T11:54:43.687Z,3.40
2023-02-28T11:57:27.434Z,4.00
2023-02-28T12:00:06.860Z,3.72
2023-02-28T12:02:41.002Z,3.25
2023-02-28T12:05:22.862Z,3.60
2023-02-28T12:08:03.734Z,3.47
2023-02-28T12:10:42.290Z,3.38
2023-02-28T12:13:21.168Z,3.55
2023-02-28T12:16:26.819Z,3.55
2023-02-28T12:19:09.321Z,3.53
2023-02-28T12:21:49.677Z,3.40
2023-02-28T12:24:37.333Z,3.53
2023-02-28T12:27:12.185Z,3.33
2023-02-28T12:29:49.207Z,3.42
2023-02-28T12:32:23.837Z,3.20
2023-02-28T12:34:57.201Z,3.60
2023-02-28T12:37:32.124Z,2.95
2023-02-28T12:40:07.656Z,3.10
2023-02-28T12:42:43.425Z,3.28
2023-02-28T12:45:17.750Z,3.60
2023-02-28T12:47:48.294Z,3.47
2023-02-28T12:50:19.971Z,3.70
2023-02-28T12:52:55.653Z,3.60
2023-02-28T12:55:34.161Z,3.47
2023-02-28T12:58:13.014Z,3.60
2023-02-28T13:00:56.105Z,3.30
2023-02-28T13:04:01.416Z,3.40
2023-02-28T13:06:55.209Z,3.42
2023-02-28T13:09:23.763Z,3.38
2023-02-28T13:11:55.350Z,3.25
2023-02-28T13:14:29.083Z,3.50
2023-02-28T13:17:04.821Z,3.10
2023-02-28T13:19:35.239Z,3.15
2023-02-28T13:22:04.481Z,3.60
2023-02-28T13:24:43.768Z,3.53
2023-02-28T13:27:33.481Z,3.47
2023-02-28T13:30:23.734Z,3.45
2023-02-28T13:33:25.827Z,3.63
2023-02-28T13:36:10.320Z,3.85
2023-02-28T13:38:41.941Z,3.28
2023-02-28T13:41:45.334Z,3.45
2023-02-28T13:44:14.902Z,3.80
2023-02-28T13:47:25.587Z,3.58
2023-02-28T13:49:54.896Z,3.55
2023-02-28T13:52:26.382Z,3.60
2023-02-28T13:55:22.713Z,3.85
2023-02-28T13:58:20.334Z,4.32
2023-02-28T14:01:08.538Z,3.83
2023-02-28T14:04:02.646Z,4.03
2023-02-28T14:06:33.549Z,3.83
2023-02-28T14:09:05.651Z,4.13
2023-02-28T14:11:37.254Z,4.10
2023-02-28T14:14:07.817Z,4.10
2023-02-28T14:16:42.209Z,4.10
2023-02-28T14:19:17.799Z,4.18
2023-02-28T14:22:05.937Z,3.85
2023-02-28T14:24:58.067Z,3.85
2023-02-28T14:27:42.043Z,3.70
2023-02-28T14:30:50.990Z,4.25
2023-02-28T14:33:45.202Z,4.25
2023-02-28T14:36:22.143Z,4.07
2023-02-28T14:38:54.594Z,4.82
2023-02-28T14:41:25.438Z,4.60
2023-02-28T14:43:57.278Z,3.88
2023-02-28T14:46:29.441Z,4.03
2023-02-28T14:49:01.176Z,4.05
2023-02-28T14:51:31.405Z,3.97
2023-02-28T14:54:02.943Z,4.07
2023-02-28T14:56:37.818Z,4.20
2023-02-28T14:59:07.965Z,4.20
2023-02-28T15:01:36.278Z,4.05
2023-02-28T15:04:07.047Z,3.72
2023-02-28T15:06:36.732Z,4.43
2023-02-28T15:09:20.686Z,4.40
2023-02-28T15:11:52.200Z,3.88
2023-02-28T15:14:23.543Z,4.38
2023-02-28T15:16:57.610Z,4.20
2023-02-28T15:19:28.363Z,3.90
2023-02-28T15:22:02.451Z,3.88
2023-02-28T15:24:39.334Z,4.03
2023-02-28T15:27:14.458Z,4.75
2023-02-28T15:29:50.312Z,4.32
2023-02-28T15:32:28.450Z,4.10
2023-02-28T15:34:57.957Z,4.72
2023-02-28T15:37:39.790Z,4.07
2023-02-28T15:40:17.394Z,3.80
2023-02-28T15:43:00.452Z,3.65
2023-02-28T15:45:31.144Z,4.10
2023-02-28T15:48:08.753Z,3.95
2023-02-28T15:50:42.492Z,4.40
2023-02-28T15:53:21.313Z,4.03
2023-02-28T15:56:00.308Z,3.75
2023-02-28T15:58:29.032Z,3.63
2023-02-28T16:01:26.896Z,4.25
2023-02-28T16:03:59.383Z,3.88
2023-02-28T16:06:35.280Z,4.30
2023-02-28T16:09:06.332Z,4.47
2023-02-28T16:11:42.790Z,4.03
2023-02-28T16:14:16.881Z,3.88
2023-02-28T16:16:49.507Z,4.38
2023-02-28T16:19:17.937Z,4.88
2023-02-28T16:21:46.306Z,3.90
2023-02-28T16:24:18.563Z,4.30
2023-02-28T16:26:49.403Z,4.40
2023-02-28T16:29:25.470Z,4.78
2023-02-28T16:31:54.521Z,4.40
2023-02-28T16:34:23.293Z,4.53
2023-02-28T16:36:52.357Z,4.53
2023-02-28T16:39:22.286Z,4.45
2023-02-28T16:41:51.996Z,4.72
2023-02-28T16:44:29.389Z,4.40
2023-02-28T16:47:00.117Z,4.78
2023-02-28T16:49:28.529Z,4.32
2023-02-28T16:51:56.853Z,5.00
2023-02-28T16:54:27.643Z,4.97
2023-02-28T16:56:57.713Z,5.18
2023-02-28T16:59:28.550Z,4.97
2023-02-28T17:01:58.725Z,5.25
2023-02-28T17:04:30.258Z,5.45
2023-02-28T17:06:58.793Z,4.60
2023-02-28T17:09:42.494Z,5.80
2023-02-28T17:12:12.995Z,5.22
2023-02-28T17:14:41.333Z,4.95
2023-02-28T17:17:14.116Z,4.95
2023-02-28T17:19:44.126Z,4.95
2023-02-28T17:22:13.034Z,4.95
2023-02-28T17:24:42.682Z,4.72
2023-02-28T17:27:14.718Z,5.07
2023-02-28T17:29:43.123Z,5.68
2023-02-28T17:32:17.789Z,4.90
2023-02-28T17:34:47.175Z,5.50
2023-02-28T17:37:15.666Z,5.35
2023-02-28T17:39:45.314Z,5.10
2023-02-28T17:42:16.993Z,5.07
2023-02-28T17:44:46.538Z,5.32
2023-02-28T17:47:15.028Z,5.22
2023-02-28T17:49:43.403Z,4.90
2023-02-28T17:52:11.738Z,5.80
2023-02-28T17:54:47.031Z,5.80
2023-02-28T17:57:21.311Z,9.90
2023-02-28T17:59:49.629Z,5.75
2023-02-28T18:02:17.971Z,5.43
2023-02-28T18:04:46.184Z,5.90
2023-02-28T18:07:14.869Z,5.78
2023-02-28T18:09:43.108Z,5.38
2023-02-28T18:12:12.775Z,6.00
2023-02-28T18:14:43.444Z,6.57
2023-02-28T18:17:13.221Z,5.63
2023-02-28T18:19:42.003Z,5.72
2023-02-28T18:22:10.361Z,6.35
2023-02-28T18:24:38.707Z,6.43
2023-02-28T18:27:07.727Z,5.82
2023-02-28T18:29:39.198Z,5.97
2023-02-28T18:32:10.001Z,6.43
2023-02-28T18:34:38.655Z,6.30
2023-02-28T18:37:06.944Z,6.22
2023-02-28T18:39:35.317Z,5.93
2023-02-28T18:42:03.721Z,6.38
2023-02-28T18:44:32.145Z,5.68
2023-02-28T18:47:02.019Z,6.55
2023-02-28T18:49:34.120Z,6.88
2023-02-28T18:52:02.470Z,6.43
2023-02-28T18:54:33.751Z,6.00
2023-02-28T18:57:02.211Z,6.22
2023-02-28T18:59:30.989Z,6.43
2023-02-28T19:01:59.570Z,6.60
2023-02-28T19:04:29.277Z,6.70
2023-02-28T19:06:57.627Z,6.57
2023-02-28T19:09:25.950Z,7.10
2023-02-28T19:11:54.236Z,7.35
2023-02-28T19:14:22.512Z,7.40
2023-02-28T19:16:52.132Z,7.00
2023-02-28T19:19:20.429Z,6.80
2023-02-28T19:21:50.272Z,7.72
2023-02-28T19:24:20.277Z,7.28
2023-02-28T19:26:48.676Z,7.60
2023-02-28T19:29:16.892Z,8.07
2023-02-28T19:31:46.256Z,8.10
2023-02-28T19:34:14.597Z,6.85
2023-02-28T19:36:42.922Z,7.63
2023-02-28T19:39:13.267Z,7.70
2023-02-28T19:41:41.491Z,7.50
2023-02-28T19:44:10.361Z,7.47
2023-02-28T19:46:39.123Z,8.15
2023-02-28T19:49:07.671Z,8.00
2023-02-28T19:51:37.791Z,9.73
2023-02-28T19:54:06.126Z,7.72
2023-02-28T19:56:35.876Z,7.47
2023-02-28T19:59:09.456Z,7.72
2023-02-28T20:01:45.177Z,7.78
2023-02-28T20:04:13.570Z,8.70
2023-02-28T20:06:42.036Z,7.88
2023-02-28T20:09:10.408Z,8.05
2023-02-28T20:11:40.221Z,7.22
2023-02-28T20:14:08.675Z,8.52
2023-02-28T20:16:36.974Z,7.82
2023-02-28T20:19:05.193Z,7.95
2023-02-28T20:21:33.662Z,8.02
2023-02-28T20:24:02.109Z,7.97
2023-02-28T20:26:30.712Z,7.55
2023-02-28T20:29:00.598Z,7.72
2023-02-28T20:31:30.578Z,8.38
2023-02-28T20:33:58.824Z,8.32
2023-02-28T20:36:27.744Z,7.57
2023-02-28T20:38:56.102Z,8.90
2023-02-28T20:41:24.621Z,7.97
2023-02-28T20:43:58.217Z,8.10
2023-02-28T20:46:28.333Z,7.82
2023-02-28T20:48:57.088Z,8.90
2023-02-28T20:51:25.697Z,8.50
2023-02-28T20:53:53.919Z,8.32
2023-02-28T20:56:23.747Z,8.55
2023-02-28T20:58:55.855Z,8.43
2023-02-28T21:01:26.252Z,7.78
2023-02-28T21:03:57.694Z,7.90
2023-02-28T21:06:28.522Z,7.80
2023-02-28T21:08:57.640Z,8.10
2023-02-28T21:11:28.119Z,8.27
2023-02-28T21:13:57.051Z,8.38
2023-02-28T21:16:27.075Z,8.70
2023-02-28T21:19:04.072Z,9.10
2023-02-28T21:21:34.464Z,9.73
2023-02-28T21:24:03.050Z,10.57
2023-02-28T21:26:31.726Z,9.95
2023-02-28T21:29:01.895Z,12.23
2023-02-28T21:31:32.297Z,14.23
2023-02-28T21:34:03.298Z,18.58
2023-02-28T21:36:33.324Z,20.08
2023-02-28T21:39:04.226Z,14.88
2023-02-28T21:41:32.491Z,20.77
2023-02-28T21:44:00.773Z,11.98
2023-02-28T21:46:30.707Z,10.02
2023-02-28T21:48:59.650Z,8.75
2023-02-28T21:51:31.499Z,8.48
2023-02-28T21:54:01.028Z,8.45
2023-02-28T21:56:31.349Z,8.65
2023-02-28T21:59:01.658Z,9.35
2023-02-28T22:01:31.603Z,9.15
2023-02-28T22:04:01.117Z,9.55
2023-02-28T22:06:32.961Z,9.73
2023-02-28T22:09:03.041Z,10.35
2023-02-28T22:11:31.553Z,9.57
2023-02-28T22:14:00.549Z,10.30
2023-02-28T22:16:44.240Z,9.93
2023-02-28T22:19:18.509Z,9.38
2023-02-28T22:21:48.395Z,9.65
2023-02-28T22:24:17.894Z,9.40
2023-02-28T22:26:46.720Z,10.35
2023-02-28T22:29:15.048Z,9.85
2023-02-28T22:31:43.416Z,10.07
2023-02-28T22:34:13.517Z,10.15
2023-02-28T22:36:43.383Z,9.68
2023-02-28T22:39:13.159Z,10.05
2023-02-28T22:41:41.577Z,9.45
2023-02-28T22:44:09.956Z,9.77
2023-02-28T22:46:38.456Z,10.55
2023-02-28T22:49:07.340Z,10.23
2023-02-28T22:51:36.193Z,10.80
2023-02-28T22:54:05.030Z,10.52
2023-02-28T22:56:34.884Z,10.77
2023-02-28T22:59:03.857Z,10.73
2023-02-28T23:01:33.805Z,9.50
2023-02-28T23:04:02.211Z,9.85
2023-02-28T23:06:32.875Z,9.88
2023-02-28T23:09:03.780Z,10.00
2023-02-28T23:11:36.153Z,10.05
2023-02-28T23:14:05.132Z,10.90
2023-02-28T23:16:36.322Z,10.40
2023-02-28T23:19:06.935Z,10.77
2023-02-28T23:21:35.593Z,10.18
2023-02-28T23:24:04.206Z,10.88
2023-02-28T23:26:33.665Z,9.95
2023-02-28T23:29:03.321Z,11.27
2023-02-28T23:31:31.582Z,11.45
2023-02-28T23:34:00.669Z,11.15
2023-02-28T23:36:29.212Z,10.82
2023-02-28T23:38:57.939Z,10.95
2023-02-28T23:41:26.364Z,11.25
2023-02-28T23:43:56.222Z,11.38
2023-02-28T23:46:26.071Z,10.55
2023-02-28T23:48:54.267Z,11.30
2023-02-28T23:51:23.542Z,12.00
2023-02-28T23:53:53.456Z,12.60
2023-02-28T23:56:23.831Z,11.90
2023-02-28T23:58:52.712Z,11.45
